sensor_id;sensor_type;location;lat;lon;timestamp;pressure;altitude;pressure_sealevel;temperature;humidity
77153;BME280;66124;51.146;17.072;2023-06-10T00:01:08;100052.54;;;16.34;79.40
77153;BME280;66124;51.146;17.072;2023-06-10T00:03:57;100054.13;;;16.27;79.60
77153;BME280;66124;51.146;17.072;2023-06-10T00:06:27;100053.11;;;16.22;80.11
77153;BME280;66124;51.146;17.072;2023-06-10T00:08:56;100051.79;;;16.20;80.05
77153;BME280;66124;51.146;17.072;2023-06-10T00:11:26;100048.52;;;16.18;80.26
77153;BME280;66124;51.146;17.072;2023-06-10T00:13:55;100053.23;;;16.21;80.23
77153;BME280;66124;51.146;17.072;2023-06-10T00:16:25;100051.73;;;16.24;80.42
77153;BME280;66124;51.146;17.072;2023-06-10T00:18:54;100052.73;;;16.28;80.59
77153;BME280;66124;51.146;17.072;2023-06-10T00:21:24;100051.25;;;16.32;80.40
77153;BME280;66124;51.146;17.072;2023-06-10T00:23:53;100046.34;;;16.35;80.37
77153;BME280;66124;51.146;17.072;2023-06-10T00:26:23;100047.15;;;16.37;80.54
77153;BME280;66124;51.146;17.072;2023-06-10T00:28:52;100046.19;;;16.39;80.52
77153;BME280;66124;51.146;17.072;2023-06-10T00:31:20;100043.70;;;16.40;80.59
77153;BME280;66124;51.146;17.072;2023-06-10T00:43:34;100042.64;;;16.55;80.52
77153;BME280;66124;51.146;17.072;2023-06-10T00:46:04;100044.14;;;16.55;80.45
77153;BME280;66124;51.146;17.072;2023-06-10T00:48:33;100044.69;;;16.59;80.42
77153;BME280;66124;51.146;17.072;2023-06-10T00:51:07;100045.35;;;16.61;80.41
77153;BME280;66124;51.146;17.072;2023-06-10T00:53:38;100047.62;;;16.64;80.24
77153;BME280;66124;51.146;17.072;2023-06-10T00:56:07;100052.36;;;16.67;80.31
77153;BME280;66124;51.146;17.072;2023-06-10T00:58:36;100049.49;;;16.67;80.14
77153;BME280;66124;51.146;17.072;2023-06-10T01:01:06;100051.02;;;16.70;79.98
77153;BME280;66124;51.146;17.072;2023-06-10T01:03:35;100048.52;;;16.71;80.25
77153;BME280;66124;51.146;17.072;2023-06-10T01:06:11;100048.77;;;16.72;80.19
77153;BME280;66124;51.146;17.072;2023-06-10T01:08:49;100048.73;;;16.72;80.26
77153;BME280;66124;51.146;17.072;2023-06-10T01:11:28;100056.56;;;16.73;80.17
77153;BME280;66124;51.146;17.072;2023-06-10T01:13:59;100051.82;;;16.75;80.35
77153;BME280;66124;51.146;17.072;2023-06-10T01:16:29;100049.30;;;16.77;80.13
77153;BME280;66124;51.146;17.072;2023-06-10T01:18:59;100045.96;;;16.78;80.35
77153;BME280;66124;51.146;17.072;2023-06-10T01:21:29;100044.56;;;16.79;80.23
77153;BME280;66124;51.146;17.072;2023-06-10T01:23:59;100044.95;;;16.80;80.24
77153;BME280;66124;51.146;17.072;2023-06-10T01:26:32;100052.66;;;16.81;80.25
77153;BME280;66124;51.146;17.072;2023-06-10T01:29:06;100051.77;;;16.80;80.30
77153;BME280;66124;51.146;17.072;2023-06-10T01:31:41;100049.05;;;16.78;80.29
77153;BME280;66124;51.146;17.072;2023-06-10T01:34:14;100051.34;;;16.78;80.22
77153;BME280;66124;51.146;17.072;2023-06-10T01:36:47;100049.45;;;16.79;80.32
77153;BME280;66124;51.146;17.072;2023-06-10T01:39:20;100049.34;;;16.81;80.16
77153;BME280;66124;51.146;17.072;2023-06-10T01:41:52;100050.77;;;16.82;80.15
77153;BME280;66124;51.146;17.072;2023-06-10T01:44:23;100052.60;;;16.82;80.11
77153;BME280;66124;51.146;17.072;2023-06-10T01:46:53;100058.80;;;16.84;80.01
77153;BME280;66124;51.146;17.072;2023-06-10T01:49:22;100057.74;;;16.84;80.01
77153;BME280;66124;51.146;17.072;2023-06-10T01:51:51;100054.77;;;16.80;79.99
77153;BME280;66124;51.146;17.072;2023-06-10T01:54:21;100053.45;;;16.72;80.14
77153;BME280;66124;51.146;17.072;2023-06-10T01:59:35;100052.63;;;16.62;80.20
77153;BME280;66124;51.146;17.072;2023-06-10T02:02:05;100054.60;;;16.55;80.07
77153;BME280;66124;51.146;17.072;2023-06-10T02:04:34;100057.58;;;16.52;80.32
77153;BME280;66124;51.146;17.072;2023-06-10T02:07:05;100060.35;;;16.51;80.58
77153;BME280;66124;51.146;17.072;2023-06-10T02:09:34;100051.86;;;16.49;80.42
77153;BME280;66124;51.146;17.072;2023-06-10T02:12:05;100054.20;;;16.49;80.42
77153;BME280;66124;51.146;17.072;2023-06-10T02:14:35;100048.27;;;16.46;80.43
77153;BME280;66124;51.146;17.072;2023-06-10T02:17:05;100043.94;;;16.42;80.34
77153;BME280;66124;51.146;17.072;2023-06-10T02:19:34;100041.30;;;16.41;80.43
77153;BME280;66124;51.146;17.072;2023-06-10T02:22:04;100040.15;;;16.40;80.48
77153;BME280;66124;51.146;17.072;2023-06-10T02:24:35;100039.09;;;16.40;80.79
77153;BME280;66124;51.146;17.072;2023-06-10T02:27:05;100037.94;;;16.41;80.67
77153;BME280;66124;51.146;17.072;2023-06-10T02:29:35;100036.29;;;16.42;80.83
77153;BME280;66124;51.146;17.072;2023-06-10T02:32:06;100040.27;;;16.44;81.03
77153;BME280;66124;51.146;17.072;2023-06-10T02:34:36;100043.48;;;16.46;80.94
77153;BME280;66124;51.146;17.072;2023-06-10T02:37:06;100045.97;;;16.49;81.06
77153;BME280;66124;51.146;17.072;2023-06-10T02:39:35;100046.68;;;16.51;81.11
77153;BME280;66124;51.146;17.072;2023-06-10T02:42:06;100047.44;;;16.53;80.96
77153;BME280;66124;51.146;17.072;2023-06-10T02:44:36;100047.73;;;16.56;80.71
77153;BME280;66124;51.146;17.072;2023-06-10T02:47:07;100047.39;;;16.58;80.76
77153;BME280;66124;51.146;17.072;2023-06-10T02:49:36;100043.42;;;16.61;80.75
77153;BME280;66124;51.146;17.072;2023-06-10T02:52:07;100045.05;;;16.62;80.64
77153;BME280;66124;51.146;17.072;2023-06-10T02:54:36;100051.55;;;16.64;80.53
77153;BME280;66124;51.146;17.072;2023-06-10T02:57:06;100052.23;;;16.66;80.48
77153;BME280;66124;51.146;17.072;2023-06-10T02:59:36;100049.58;;;16.67;80.44
77153;BME280;66124;51.146;17.072;2023-06-10T03:02:06;100045.98;;;16.67;80.37
77153;BME280;66124;51.146;17.072;2023-06-10T03:04:35;100043.65;;;16.67;80.38
77153;BME280;66124;51.146;17.072;2023-06-10T03:07:05;100055.35;;;16.67;80.65
77153;BME280;66124;51.146;17.072;2023-06-10T03:09:33;100057.88;;;16.68;80.35
77153;BME280;66124;51.146;17.072;2023-06-10T03:12:01;100063.34;;;16.71;80.45
77153;BME280;66124;51.146;17.072;2023-06-10T03:19:56;100072.50;;;16.87;80.14
77153;BME280;66124;51.146;17.072;2023-06-10T03:22:24;100075.02;;;16.91;80.18
77153;BME280;66124;51.146;17.072;2023-06-10T03:24:51;100077.28;;;16.95;80.04
77153;BME280;66124;51.146;17.072;2023-06-10T03:27:18;100076.15;;;16.96;79.95
77153;BME280;66124;51.146;17.072;2023-06-10T03:29:46;100077.29;;;16.97;79.77
77153;BME280;66124;51.146;17.072;2023-06-10T03:32:13;100080.09;;;16.98;79.71
77153;BME280;66124;51.146;17.072;2023-06-10T03:34:41;100079.66;;;17.00;79.52
77153;BME280;66124;51.146;17.072;2023-06-10T03:37:09;100081.60;;;17.02;79.54
77153;BME280;66124;51.146;17.072;2023-06-10T03:39:35;100083.50;;;17.05;79.39
77153;BME280;66124;51.146;17.072;2023-06-10T03:42:02;100084.58;;;17.07;79.43
77153;BME280;66124;51.146;17.072;2023-06-10T03:47:15;100091.45;;;17.17;79.13
77153;BME280;66124;51.146;17.072;2023-06-10T03:49:44;100093.16;;;17.19;79.10
77153;BME280;66124;51.146;17.072;2023-06-10T03:52:14;100091.70;;;17.23;78.86
77153;BME280;66124;51.146;17.072;2023-06-10T03:54:43;100095.36;;;17.26;78.95
77153;BME280;66124;51.146;17.072;2023-06-10T03:57:13;100096.69;;;17.27;79.05
77153;BME280;66124;51.146;17.072;2023-06-10T03:59:43;100100.98;;;17.28;79.06
77153;BME280;66124;51.146;17.072;2023-06-10T04:02:12;100101.69;;;17.31;78.97
77153;BME280;66124;51.146;17.072;2023-06-10T04:04:42;100105.65;;;17.34;79.19
77153;BME280;66124;51.146;17.072;2023-06-10T04:07:11;100103.97;;;17.37;79.12
77153;BME280;66124;51.146;17.072;2023-06-10T04:09:41;100105.16;;;17.39;79.32
77153;BME280;66124;51.146;17.072;2023-06-10T04:12:11;100102.83;;;17.43;79.22
77153;BME280;66124;51.146;17.072;2023-06-10T04:14:40;100102.64;;;17.47;79.15
77153;BME280;66124;51.146;17.072;2023-06-10T04:17:10;100102.69;;;17.51;79.10
77153;BME280;66124;51.146;17.072;2023-06-10T04:19:40;100105.58;;;17.54;79.05
77153;BME280;66124;51.146;17.072;2023-06-10T04:22:09;100107.88;;;17.57;79.00
77153;BME280;66124;51.146;17.072;2023-06-10T04:24:39;100110.94;;;17.61;79.20
77153;BME280;66124;51.146;17.072;2023-06-10T04:27:08;100114.06;;;17.65;79.09
77153;BME280;66124;51.146;17.072;2023-06-10T04:29:38;100109.42;;;17.66;79.10
77153;BME280;66124;51.146;17.072;2023-06-10T04:32:08;100113.73;;;17.70;78.96
77153;BME280;66124;51.146;17.072;2023-06-10T04:34:38;100113.23;;;17.71;78.93
77153;BME280;66124;51.146;17.072;2023-06-10T04:37:07;100115.27;;;17.72;78.73
77153;BME280;66124;51.146;17.072;2023-06-10T04:39:37;100115.46;;;17.73;78.58
77153;BME280;66124;51.146;17.072;2023-06-10T04:42:07;100111.58;;;17.73;78.71
77153;BME280;66124;51.146;17.072;2023-06-10T04:44:36;100115.00;;;17.74;78.61
77153;BME280;66124;51.146;17.072;2023-06-10T04:47:06;100118.53;;;17.74;78.68
77153;BME280;66124;51.146;17.072;2023-06-10T04:49:35;100117.67;;;17.74;78.68
77153;BME280;66124;51.146;17.072;2023-06-10T04:52:06;100120.94;;;17.74;78.76
77153;BME280;66124;51.146;17.072;2023-06-10T04:54:36;100124.02;;;17.77;78.66
77153;BME280;66124;51.146;17.072;2023-06-10T04:57:07;100122.99;;;17.80;78.73
77153;BME280;66124;51.146;17.072;2023-06-10T04:59:34;100127.55;;;17.83;78.68
77153;BME280;66124;51.146;17.072;2023-06-10T05:08:12;100126.05;;;17.98;78.32
77153;BME280;66124;51.146;17.072;2023-06-10T05:10:42;100127.04;;;18.00;78.09
77153;BME280;66124;51.146;17.072;2023-06-10T05:13:11;100128.84;;;18.04;78.27
77153;BME280;66124;51.146;17.072;2023-06-10T05:15:41;100132.52;;;18.08;78.10
77153;BME280;66124;51.146;17.072;2023-06-10T05:18:10;100135.75;;;18.12;78.11
77153;BME280;66124;51.146;17.072;2023-06-10T05:20:41;100136.45;;;18.17;78.01
77153;BME280;66124;51.146;17.072;2023-06-10T05:23:11;100136.13;;;18.21;77.95
77153;BME280;66124;51.146;17.072;2023-06-10T05:25:40;100138.42;;;18.28;78.01
77153;BME280;66124;51.146;17.072;2023-06-10T05:28:10;100144.00;;;18.33;78.07
77153;BME280;66124;51.146;17.072;2023-06-10T05:30:39;100146.77;;;18.40;78.10
77153;BME280;66124;51.146;17.072;2023-06-10T05:33:08;100151.06;;;18.47;77.94
77153;BME280;66124;51.146;17.072;2023-06-10T05:35:38;100152.23;;;18.55;78.04
77153;BME280;66124;51.146;17.072;2023-06-10T05:38:07;100151.44;;;18.63;77.79
77153;BME280;66124;51.146;17.072;2023-06-10T05:40:37;100155.88;;;18.70;77.74
77153;BME280;66124;51.146;17.072;2023-06-10T05:43:06;100155.80;;;18.78;77.69
77153;BME280;66124;51.146;17.072;2023-06-10T05:45:36;100159.77;;;18.86;77.67
77153;BME280;66124;51.146;17.072;2023-06-10T05:48:06;100162.27;;;18.93;77.50
77153;BME280;66124;51.146;17.072;2023-06-10T05:50:36;100161.85;;;19.02;77.41
77153;BME280;66124;51.146;17.072;2023-06-10T05:53:06;100161.32;;;19.12;77.21
77153;BME280;66124;51.146;17.072;2023-06-10T05:55:35;100157.67;;;19.25;77.08
77153;BME280;66124;51.146;17.072;2023-06-10T05:58:04;100160.14;;;19.40;76.93
77153;BME280;66124;51.146;17.072;2023-06-10T06:00:34;100162.71;;;19.54;76.84
77153;BME280;66124;51.146;17.072;2023-06-10T06:03:03;100170.45;;;19.69;76.76
77153;BME280;66124;51.146;17.072;2023-06-10T06:05:33;100168.30;;;19.84;76.54
77153;BME280;66124;51.146;17.072;2023-06-10T06:08:02;100173.95;;;19.98;76.31
77153;BME280;66124;51.146;17.072;2023-06-10T06:10:32;100172.66;;;20.10;75.92
77153;BME280;66124;51.146;17.072;2023-06-10T06:13:02;100171.17;;;20.14;75.59
77153;BME280;66124;51.146;17.072;2023-06-10T06:15:32;100173.41;;;20.15;75.33
77153;BME280;66124;51.146;17.072;2023-06-10T06:18:01;100174.73;;;20.17;75.16
77153;BME280;66124;51.146;17.072;2023-06-10T06:20:29;100172.92;;;20.20;74.91
77153;BME280;66124;51.146;17.072;2023-06-10T06:28:24;100171.63;;;20.37;74.31
77153;BME280;66124;51.146;17.072;2023-06-10T06:30:53;100174.39;;;20.39;73.99
77153;BME280;66124;51.146;17.072;2023-06-10T06:33:22;100176.48;;;20.40;73.79
77153;BME280;66124;51.146;17.072;2023-06-10T06:35:52;100183.64;;;20.44;73.84
77153;BME280;66124;51.146;17.072;2023-06-10T06:38:21;100184.23;;;20.52;73.70
77153;BME280;66124;51.146;17.072;2023-06-10T06:40:53;100189.99;;;20.60;73.53
77153;BME280;66124;51.146;17.072;2023-06-10T06:43:22;100189.35;;;20.67;73.25
77153;BME280;66124;51.146;17.072;2023-06-10T06:45:52;100191.46;;;20.73;73.17
77153;BME280;66124;51.146;17.072;2023-06-10T06:48:21;100191.31;;;20.81;73.03
77153;BME280;66124;51.146;17.072;2023-06-10T06:50:51;100192.86;;;20.88;72.83
77153;BME280;66124;51.146;17.072;2023-06-10T06:53:20;100193.54;;;20.95;72.80
77153;BME280;66124;51.146;17.072;2023-06-10T06:55:50;100195.59;;;21.03;72.51
77153;BME280;66124;51.146;17.072;2023-06-10T06:58:19;100197.85;;;21.10;72.23
77153;BME280;66124;51.146;17.072;2023-06-10T07:00:49;100201.86;;;21.17;72.01
77153;BME280;66124;51.146;17.072;2023-06-10T07:03:18;100205.44;;;21.20;71.77
77153;BME280;66124;51.146;17.072;2023-06-10T07:05:48;100206.59;;;21.22;71.75
77153;BME280;66124;51.146;17.072;2023-06-10T07:08:17;100208.85;;;21.27;71.62
77153;BME280;66124;51.146;17.072;2023-06-10T07:10:47;100209.34;;;21.32;71.41
77153;BME280;66124;51.146;17.072;2023-06-10T07:13:16;100211.91;;;21.32;70.98
77153;BME280;66124;51.146;17.072;2023-06-10T07:15:46;100217.36;;;21.34;70.92
77153;BME280;66124;51.146;17.072;2023-06-10T07:18:16;100220.55;;;21.35;70.89
77153;BME280;66124;51.146;17.072;2023-06-10T07:20:45;100219.96;;;21.35;70.63
77153;BME280;66124;51.146;17.072;2023-06-10T07:23:15;100219.45;;;21.37;70.60
77153;BME280;66124;51.146;17.072;2023-06-10T07:25:44;100216.69;;;21.35;70.57
77153;BME280;66124;51.146;17.072;2023-06-10T07:28:14;100218.27;;;21.33;70.47
77153;BME280;66124;51.146;17.072;2023-06-10T07:30:44;100224.06;;;21.33;70.40
77153;BME280;66124;51.146;17.072;2023-06-10T07:33:13;100222.97;;;21.32;70.32
77153;BME280;66124;51.146;17.072;2023-06-10T07:35:42;100228.98;;;21.31;70.25
77153;BME280;66124;51.146;17.072;2023-06-10T07:38:12;100229.11;;;21.34;70.34
77153;BME280;66124;51.146;17.072;2023-06-10T07:40:40;100229.47;;;21.37;70.16
77153;BME280;66124;51.146;17.072;2023-06-10T07:48:47;100232.96;;;21.68;69.82
77153;BME280;66124;51.146;17.072;2023-06-10T07:51:17;100234.50;;;21.72;69.51
77153;BME280;66124;51.146;17.072;2023-06-10T07:53:47;100230.10;;;21.76;69.21
77153;BME280;66124;51.146;17.072;2023-06-10T07:56:16;100232.69;;;21.82;69.15
77153;BME280;66124;51.146;17.072;2023-06-10T07:58:46;100234.65;;;21.91;69.29
77153;BME280;66124;51.146;17.072;2023-06-10T08:01:15;100235.80;;;21.99;68.94
77153;BME280;66124;51.146;17.072;2023-06-10T08:03:45;100236.00;;;22.09;68.89
77153;BME280;66124;51.146;17.072;2023-06-10T08:06:14;100239.64;;;22.25;68.65
77153;BME280;66124;51.146;17.072;2023-06-10T08:08:44;100241.41;;;22.43;68.39
77153;BME280;66124;51.146;17.072;2023-06-10T08:11:13;100242.47;;;22.59;67.86
77153;BME280;66124;51.146;17.072;2023-06-10T08:13:43;100247.86;;;22.72;66.95
77153;BME280;66124;51.146;17.072;2023-06-10T08:16:12;100251.55;;;22.84;66.20
77153;BME280;66124;51.146;17.072;2023-06-10T08:18:42;100246.14;;;22.97;65.88
77153;BME280;66124;51.146;17.072;2023-06-10T08:21:11;100249.34;;;23.11;65.24
77153;BME280;66124;51.146;17.072;2023-06-10T08:23:41;100254.55;;;23.18;64.63
77153;BME280;66124;51.146;17.072;2023-06-10T08:26:10;100254.13;;;23.22;64.08
77153;BME280;66124;51.146;17.072;2023-06-10T08:28:40;100255.34;;;23.25;63.62
77153;BME280;66124;51.146;17.072;2023-06-10T08:31:09;100257.98;;;23.35;63.79
77153;BME280;66124;51.146;17.072;2023-06-10T08:33:41;100258.38;;;23.45;63.52
77153;BME280;66124;51.146;17.072;2023-06-10T08:36:10;100256.46;;;23.53;63.01
77153;BME280;66124;51.146;17.072;2023-06-10T08:38:40;100253.79;;;23.56;62.93
77153;BME280;66124;51.146;17.072;2023-06-10T08:41:12;100254.15;;;23.68;62.81
77153;BME280;66124;51.146;17.072;2023-06-10T08:43:46;100253.27;;;23.80;62.51
77153;BME280;66124;51.146;17.072;2023-06-10T08:46:17;100254.55;;;23.91;62.33
77153;BME280;66124;51.146;17.072;2023-06-10T08:48:48;100249.94;;;24.00;61.92
77153;BME280;66124;51.146;17.072;2023-06-10T08:51:16;100246.85;;;24.07;61.31
77153;BME280;66124;51.146;17.072;2023-06-10T08:53:50;100252.19;;;24.08;61.16
77153;BME280;66124;51.146;17.072;2023-06-10T08:56:24;100250.47;;;24.16;60.60
77153;BME280;66124;51.146;17.072;2023-06-10T08:58:54;100249.89;;;24.25;60.05
77153;BME280;66124;51.146;17.072;2023-06-10T09:01:22;100248.70;;;24.25;59.25
77153;BME280;66124;51.146;17.072;2023-06-10T09:14:05;100257.19;;;24.52;58.87
77153;BME280;66124;51.146;17.072;2023-06-10T09:16:34;100250.12;;;24.52;58.98
77153;BME280;66124;51.146;17.072;2023-06-10T09:19:04;100247.20;;;24.49;58.85
77153;BME280;66124;51.146;17.072;2023-06-10T09:21:34;100250.88;;;24.40;58.65
77153;BME280;66124;51.146;17.072;2023-06-10T09:24:05;100244.98;;;24.35;58.62
77153;BME280;66124;51.146;17.072;2023-06-10T09:26:35;100246.71;;;24.28;58.83
77153;BME280;66124;51.146;17.072;2023-06-10T09:29:08;100246.61;;;24.29;59.08
77153;BME280;66124;51.146;17.072;2023-06-10T09:31:38;100242.89;;;24.35;59.30
77153;BME280;66124;51.146;17.072;2023-06-10T09:34:12;100246.30;;;24.39;58.99
77153;BME280;66124;51.146;17.072;2023-06-10T09:36:42;100242.73;;;24.43;58.41
77153;BME280;66124;51.146;17.072;2023-06-10T09:39:17;100238.96;;;24.46;57.86
77153;BME280;66124;51.146;17.072;2023-06-10T09:41:47;100236.86;;;24.54;57.67
77153;BME280;66124;51.146;17.072;2023-06-10T09:44:17;100231.95;;;24.59;57.59
77153;BME280;66124;51.146;17.072;2023-06-10T09:46:49;100231.67;;;24.58;57.73
77153;BME280;66124;51.146;17.072;2023-06-10T09:49:19;100230.75;;;24.62;57.99
77153;BME280;66124;51.146;17.072;2023-06-10T09:51:53;100229.45;;;24.67;57.60
77153;BME280;66124;51.146;17.072;2023-06-10T09:54:26;100233.13;;;24.66;57.38
77153;BME280;66124;51.146;17.072;2023-06-10T09:57:08;100238.46;;;24.64;57.17
77153;BME280;66124;51.146;17.072;2023-06-10T09:59:36;100235.34;;;24.63;57.13
77153;BME280;66124;51.146;17.072;2023-06-10T10:02:08;100234.20;;;24.67;57.18
77153;BME280;66124;51.146;17.072;2023-06-10T10:04:42;100229.89;;;24.82;57.05
77153;BME280;66124;51.146;17.072;2023-06-10T10:07:12;100228.58;;;24.96;56.68
77153;BME280;66124;51.146;17.072;2023-06-10T10:09:42;100222.49;;;25.11;56.03
77153;BME280;66124;51.146;17.072;2023-06-10T10:12:14;100228.52;;;25.21;55.85
77153;BME280;66124;51.146;17.072;2023-06-10T10:14:47;100226.26;;;25.28;55.30
77153;BME280;66124;51.146;17.072;2023-06-10T10:17:17;100224.73;;;25.34;55.14
77153;BME280;66124;51.146;17.072;2023-06-10T10:19:50;100211.20;;;25.40;54.70
77153;BME280;66124;51.146;17.072;2023-06-10T10:22:26;100203.86;;;25.45;54.03
77153;BME280;66124;51.146;17.072;2023-06-10T10:24:57;100203.85;;;25.50;53.49
77153;BME280;66124;51.146;17.072;2023-06-10T10:49:44;100175.92;;;27.01;48.74
77153;BME280;66124;51.146;17.072;2023-06-10T10:52:15;100178.23;;;27.36;47.43
77153;BME280;66124;51.146;17.072;2023-06-10T10:54:47;100167.90;;;27.40;47.24
77153;BME280;66124;51.146;17.072;2023-06-10T10:57:18;100163.42;;;27.50;46.35
77153;BME280;66124;51.146;17.072;2023-06-10T10:59:54;100164.29;;;27.50;46.10
77153;BME280;66124;51.146;17.072;2023-06-10T11:02:39;100162.67;;;27.56;45.80
77153;BME280;66124;51.146;17.072;2023-06-10T11:05:11;100160.59;;;27.63;44.62
77153;BME280;66124;51.146;17.072;2023-06-10T11:07:41;100165.11;;;27.69;43.54
77153;BME280;66124;51.146;17.072;2023-06-10T11:10:30;100156.52;;;27.78;42.89
77153;BME280;66124;51.146;17.072;2023-06-10T11:13:00;100159.42;;;27.93;43.07
77153;BME280;66124;51.146;17.072;2023-06-10T11:15:30;100161.23;;;28.08;42.37
77153;BME280;66124;51.146;17.072;2023-06-10T11:18:20;100166.54;;;28.17;40.87
77153;BME280;66124;51.146;17.072;2023-06-10T11:20:58;100172.66;;;28.18;40.58
77153;BME280;66124;51.146;17.072;2023-06-10T11:23:42;100166.05;;;28.20;40.18
77153;BME280;66124;51.146;17.072;2023-06-10T11:26:17;100159.64;;;28.28;40.00
77153;BME280;66124;51.146;17.072;2023-06-10T11:29:09;100154.81;;;28.37;39.61
77153;BME280;66124;51.146;17.072;2023-06-10T11:31:48;100150.33;;;28.46;38.98
77153;BME280;66124;51.146;17.072;2023-06-10T11:34:23;100150.06;;;28.62;38.46
77153;BME280;66124;51.146;17.072;2023-06-10T11:36:53;100159.69;;;28.66;37.84
77153;BME280;66124;51.146;17.072;2023-06-10T11:39:24;100154.64;;;28.57;37.31
77153;BME280;66124;51.146;17.072;2023-06-10T11:41:53;100159.78;;;28.48;37.22
77153;BME280;66124;51.146;17.072;2023-06-10T11:44:25;100165.18;;;28.41;37.34
77153;BME280;66124;51.146;17.072;2023-06-10T11:46:57;100166.40;;;28.49;37.61
77153;BME280;66124;51.146;17.072;2023-06-10T11:49:27;100162.26;;;28.71;37.67
77153;BME280;66124;51.146;17.072;2023-06-10T11:51:57;100158.74;;;29.01;36.67
77153;BME280;66124;51.146;17.072;2023-06-10T11:54:26;100156.02;;;29.29;35.57
77153;BME280;66124;51.146;17.072;2023-06-10T11:57:00;100149.15;;;29.49;34.35
77153;BME280;66124;51.146;17.072;2023-06-10T11:59:30;100154.80;;;29.63;33.66
77153;BME280;66124;51.146;17.072;2023-06-10T12:09:43;100150.21;;;29.93;30.15
77153;BME280;66124;51.146;17.072;2023-06-10T12:12:12;100151.95;;;30.13;30.91
77153;BME280;66124;51.146;17.072;2023-06-10T12:14:56;100153.58;;;30.44;30.19
77153;BME280;66124;51.146;17.072;2023-06-10T12:17:38;100150.18;;;30.62;29.69
77153;BME280;66124;51.146;17.072;2023-06-10T12:20:23;100147.83;;;30.66;29.36
77153;BME280;66124;51.146;17.072;2023-06-10T12:22:53;100148.23;;;30.72;29.60
77153;BME280;66124;51.146;17.072;2023-06-10T12:25:27;100148.13;;;31.00;30.24
77153;BME280;66124;51.146;17.072;2023-06-10T12:27:58;100149.96;;;31.12;29.81
77153;BME280;66124;51.146;17.072;2023-06-10T12:30:28;100150.58;;;30.99;29.89
77153;BME280;66124;51.146;17.072;2023-06-10T12:32:58;100145.63;;;30.76;30.23
77153;BME280;66124;51.146;17.072;2023-06-10T12:35:28;100143.85;;;30.60;29.91
77153;BME280;66124;51.146;17.072;2023-06-10T12:38:00;100142.70;;;30.44;30.15
77153;BME280;66124;51.146;17.072;2023-06-10T12:40:32;100144.02;;;30.32;30.36
77153;BME280;66124;51.146;17.072;2023-06-10T12:43:02;100142.36;;;30.29;30.66
77153;BME280;66124;51.146;17.072;2023-06-10T12:45:33;100134.50;;;30.26;30.24
77153;BME280;66124;51.146;17.072;2023-06-10T12:48:11;100133.30;;;30.37;30.41
77153;BME280;66124;51.146;17.072;2023-06-10T12:50:42;100134.11;;;30.65;29.89
77153;BME280;66124;51.146;17.072;2023-06-10T12:53:12;100137.05;;;30.77;29.64
77153;BME280;66124;51.146;17.072;2023-06-10T12:55:41;100133.06;;;30.97;29.53
77153;BME280;66124;51.146;17.072;2023-06-10T12:58:11;100129.79;;;31.19;28.76
77153;BME280;66124;51.146;17.072;2023-06-10T13:00:41;100125.83;;;31.31;28.66
77153;BME280;66124;51.146;17.072;2023-06-10T13:03:11;100126.11;;;31.39;28.45
77153;BME280;66124;51.146;17.072;2023-06-10T13:05:41;100121.95;;;31.40;27.82
77153;BME280;66124;51.146;17.072;2023-06-10T13:08:10;100125.70;;;31.40;27.40
77153;BME280;66124;51.146;17.072;2023-06-10T13:10:40;100132.43;;;31.40;27.47
77153;BME280;66124;51.146;17.072;2023-06-10T13:13:09;100129.12;;;31.57;27.12
77153;BME280;66124;51.146;17.072;2023-06-10T13:15:39;100131.88;;;31.71;27.32
77153;BME280;66124;51.146;17.072;2023-06-10T13:18:09;100127.35;;;31.92;26.96
77153;BME280;66124;51.146;17.072;2023-06-10T13:20:37;100119.79;;;32.13;26.13
77153;BME280;66124;51.146;17.072;2023-06-10T13:30:59;100123.77;;;32.13;24.30
77153;BME280;66124;51.146;17.072;2023-06-10T13:33:28;100128.13;;;31.87;23.73
77153;BME280;66124;51.146;17.072;2023-06-10T13:35:58;100127.67;;;31.54;23.74
77153;BME280;66124;51.146;17.072;2023-06-10T13:38:27;100129.40;;;31.35;24.03
77153;BME280;66124;51.146;17.072;2023-06-10T13:40:57;100126.16;;;31.49;24.62
77153;BME280;66124;51.146;17.072;2023-06-10T13:43:28;100125.08;;;31.79;25.11
77153;BME280;66124;51.146;17.072;2023-06-10T13:45:55;100121.91;;;32.10;24.88
77153;BME280;66124;51.146;17.072;2023-06-10T13:48:25;100123.61;;;32.33;25.14
77153;BME280;66124;51.146;17.072;2023-06-10T13:50:54;100122.88;;;32.67;24.72
77153;BME280;66124;51.146;17.072;2023-06-10T13:53:24;100116.81;;;32.86;24.06
77153;BME280;66124;51.146;17.072;2023-06-10T13:55:53;100116.64;;;32.84;23.33
77153;BME280;66124;51.146;17.072;2023-06-10T13:58:23;100118.01;;;32.78;23.41
77153;BME280;66124;51.146;17.072;2023-06-10T14:00:52;100122.70;;;32.91;23.76
77153;BME280;66124;51.146;17.072;2023-06-10T14:03:22;100114.93;;;33.15;23.26
77153;BME280;66124;51.146;17.072;2023-06-10T14:05:51;100122.27;;;33.23;22.32
77153;BME280;66124;51.146;17.072;2023-06-10T14:08:21;100117.11;;;33.11;22.14
77153;BME280;66124;51.146;17.072;2023-06-10T14:10:50;100121.54;;;33.27;22.15
77153;BME280;66124;51.146;17.072;2023-06-10T14:13:20;100123.63;;;33.42;21.91
77153;BME280;66124;51.146;17.072;2023-06-10T14:15:49;100119.29;;;33.31;20.98
77153;BME280;66124;51.146;17.072;2023-06-10T14:18:19;100124.83;;;33.11;21.52
77153;BME280;66124;51.146;17.072;2023-06-10T14:20:48;100125.62;;;33.19;21.38
77153;BME280;66124;51.146;17.072;2023-06-10T14:23:18;100118.40;;;33.16;21.20